Time;durP1;ratioP1;P1;durP2;ratioP2;P2;SDS_P1;SDS_P2;PMS_P1;PMS_P2;Temp;Humidity;BMP_temperature;BMP_pressure;BME280_temperature;BME280_humidity;BME280_pressure;Samples;Min_cycle;Max_cycle;Signal;HPM_P1;HPM_P2
2022/10/14 00:01:10;;;;;;;;;;;14.60;99.90;;;;;;5057300;28;19912;-79
2022/10/14 00:03:36;;;;;;;;;;;14.60;99.90;;;;;;5075208;28;20020;-80
2022/10/14 00:06:10;;;;;;;;;;;14.60;99.90;;;;;;5057241;28;19920;-80
2022/10/14 00:08:35;;;;;;;;;;;14.60;99.90;;;;;;5057542;28;19920;-80
2022/10/14 00:11:05;;;;;;;;;;;14.60;99.90;;;;;;5057173;28;19908;-79
2022/10/14 00:13:30;;;;;;;;;;;14.60;99.90;;;;;;5057175;28;20262;-81
2022/10/14 00:15:56;;;;;;;;;;;14.60;99.90;;;;;;5075064;28;19995;-79
2022/10/14 00:18:22;;;;;;;;;;;14.60;99.90;;;;;;5057337;28;19955;-80
2022/10/14 00:20:54;;;;;;;;;;;14.50;99.90;;;;;;5057022;28;19965;-80
2022/10/14 00:23:20;;;;;;;;;;;14.60;99.90;;;;;;5074659;28;19946;-80
2022/10/14 00:25:45;;;;;;;;;;;14.60;99.90;;;;;;5057104;28;19955;-80
2022/10/14 00:28:11;;;;;;;;;;;14.60;99.90;;;;;;5075161;28;19908;-80
2022/10/14 00:30:36;;;;;;;;;;;14.50;99.90;;;;;;5056898;28;20374;-81
2022/10/14 00:33:01;;;;;;;;;;;14.60;99.90;;;;;;5074446;28;19908;-80
2022/10/14 00:35:27;;;;;;;;;;;14.60;99.90;;;;;;5056752;28;19954;-80
2022/10/14 00:37:53;;;;;;;;;;;14.60;99.90;;;;;;5111476;22;19932;-84
2022/10/14 00:40:18;;;;;;;;;;;14.60;99.90;;;;;;5097047;28;19919;-83
2022/10/14 00:42:43;;;;;;;;;;;14.60;99.90;;;;;;5078393;28;19908;-83
2022/10/14 00:45:13;;;;;;;;;;;14.60;99.90;;;;;;5078957;28;19987;-82
2022/10/14 00:47:39;;;;;;;;;;;14.50;99.90;;;;;;5078845;28;19995;-82
2022/10/14 00:50:05;;;;;;;;;;;14.50;99.90;;;;;;5078747;28;19908;-83
2022/10/14 00:52:30;;;;;;;;;;;14.60;99.90;;;;;;5078427;28;19908;-82
2022/10/14 00:54:58;;;;;;;;;;;14.60;99.90;;;;;;5077882;28;20017;-83
2022/10/14 00:57:24;;;;;;;;;;;14.60;99.90;;;;;;5096753;28;20361;-83
2022/10/14 00:59:50;;;;;;;;;;;14.70;99.90;;;;;;5097022;28;19957;-83
2022/10/14 01:02:16;;;;;;;;;;;14.70;99.90;;;;;;5097034;28;19909;-81
2022/10/14 01:04:42;;;;;;;;;;;14.80;99.90;;;;;;5078649;28;20359;-83
2022/10/14 01:07:07;;;;;;;;;;;14.70;99.90;;;;;;5096810;28;19962;-83
2022/10/14 01:09:42;;;;;;;;;;;14.70;99.90;;;;;;5096860;28;19911;-84
2022/10/14 01:12:26;;;;;;;;;;;14.70;99.90;;;;;;5096176;28;19915;-84
2022/10/14 01:15:15;;;;;;;;;;;14.70;99.90;;;;;;5078359;28;20335;-82
2022/10/14 01:17:48;;;;;;;;;;;14.70;99.90;;;;;;5096278;28;20273;-84
2022/10/14 01:20:19;;;;;;;;;;;14.70;99.90;;;;;;5078195;28;19922;-83
2022/10/14 01:22:49;;;;;;;;;;;14.70;99.90;;;;;;5096379;28;19908;-83
2022/10/14 01:25:14;;;;;;;;;;;14.60;99.90;;;;;;5096138;28;19961;-82
2022/10/14 01:27:46;;;;;;;;;;;14.70;99.90;;;;;;5078455;28;19939;-83
2022/10/14 01:30:17;;;;;;;;;;;14.70;99.90;;;;;;5078350;28;19937;-83
2022/10/14 01:33:02;;;;;;;;;;;14.70;99.90;;;;;;5096460;28;19916;-82
2022/10/14 01:35:44;;;;;;;;;;;14.60;99.90;;;;;;5078569;28;19908;-84
2022/10/14 01:38:12;;;;;;;;;;;14.60;99.90;;;;;;5095952;28;19919;-82
2022/10/14 01:40:44;;;;;;;;;;;14.50;99.90;;;;;;5096121;28;19920;-83
2022/10/14 01:43:12;;;;;;;;;;;14.50;99.90;;;;;;5077588;28;20001;-82
2022/10/14 01:45:39;;;;;;;;;;;14.50;99.90;;;;;;5095604;28;19908;-83
2022/10/14 01:48:05;;;;;;;;;;;14.50;99.90;;;;;;5095333;28;20373;-82
2022/10/14 01:50:33;;;;;;;;;;;14.60;99.90;;;;;;5095249;28;19916;-81
2022/10/14 01:53:02;;;;;;;;;;;14.50;99.90;;;;;;5095056;28;19908;-83
2022/10/14 01:55:29;;;;;;;;;;;14.50;99.90;;;;;;5095227;28;19908;-82
2022/10/14 01:57:56;;;;;;;;;;;14.60;99.90;;;;;;5095420;28;20409;-82
2022/10/14 02:00:21;;;;;;;;;;;14.60;99.90;;;;;;5077237;28;19970;-82
2022/10/14 02:02:47;;;;;;;;;;;14.60;99.90;;;;;;5095245;28;20312;-81
2022/10/14 02:05:15;;;;;;;;;;;14.70;99.90;;;;;;5075816;28;20416;-83
2022/10/14 02:07:43;;;;;;;;;;;14.70;99.90;;;;;;5077142;28;19998;-83
2022/10/14 02:10:28;;;;;;;;;;;14.70;99.90;;;;;;5076694;28;20321;-81
2022/10/14 02:12:54;;;;;;;;;;;14.70;99.90;;;;;;5094759;28;20380;-82
2022/10/14 02:15:31;;;;;;;;;;;14.80;99.90;;;;;;5094933;28;19908;-81
2022/10/14 02:18:12;;;;;;;;;;;14.70;99.90;;;;;;5095296;28;20426;-83
2022/10/14 02:20:52;;;;;;;;;;;14.80;99.90;;;;;;5076723;28;19955;-82
2022/10/14 02:23:21;;;;;;;;;;;14.80;99.90;;;;;;5094846;28;19909;-81
2022/10/14 02:25:48;;;;;;;;;;;14.80;99.90;;;;;;5095031;28;19915;-83
2022/10/14 02:28:17;;;;;;;;;;;14.80;99.90;;;;;;5095056;28;20291;-82
2022/10/14 02:30:45;;;;;;;;;;;14.80;99.90;;;;;;5076787;28;19919;-82
2022/10/14 02:33:11;;;;;;;;;;;14.80;99.90;;;;;;5094838;28;19915;-83
2022/10/14 02:35:38;;;;;;;;;;;14.80;99.90;;;;;;5094691;28;19908;-83
2022/10/14 02:38:04;;;;;;;;;;;14.80;99.90;;;;;;5076569;28;19919;-83
2022/10/14 02:40:34;;;;;;;;;;;14.80;99.90;;;;;;5076714;28;19916;-83
2022/10/14 02:43:00;;;;;;;;;;;14.90;99.90;;;;;;5076895;28;19909;-83
2022/10/14 02:45:26;;;;;;;;;;;14.90;99.90;;;;;;5095536;28;19915;-83
2022/10/14 02:47:52;;;;;;;;;;;14.90;99.90;;;;;;5076922;28;19916;-82
2022/10/14 02:50:18;;;;;;;;;;;14.90;99.90;;;;;;5077497;28;20260;-82
2022/10/14 02:52:43;;;;;;;;;;;15.00;99.90;;;;;;5095235;28;19912;-82
2022/10/14 02:55:09;;;;;;;;;;;14.90;99.90;;;;;;5095073;28;19908;-81
2022/10/14 02:57:34;;;;;;;;;;;14.90;99.90;;;;;;5094970;28;20254;-83
2022/10/14 03:00:00;;;;;;;;;;;14.90;99.90;;;;;;5095169;28;19919;-82
2022/10/14 03:02:25;;;;;;;;;;;14.80;99.90;;;;;;5076807;28;19962;-83
2022/10/14 03:04:51;;;;;;;;;;;14.90;99.90;;;;;;5094112;28;19908;-82
2022/10/14 03:07:16;;;;;;;;;;;14.90;99.90;;;;;;5076770;28;19908;-82
2022/10/14 03:09:42;;;;;;;;;;;14.90;99.90;;;;;;5096073;28;19954;-83
2022/10/14 03:12:07;;;;;;;;;;;14.90;99.90;;;;;;5095601;28;20049;-82
2022/10/14 03:14:32;;;;;;;;;;;14.90;99.90;;;;;;5095753;28;19917;-82
2022/10/14 03:16:58;;;;;;;;;;;14.90;99.90;;;;;;5097546;28;19967;-82
2022/10/14 03:19:23;;;;;;;;;;;14.90;99.90;;;;;;5099771;28;19908;-83
2022/10/14 03:21:50;;;;;;;;;;;14.90;99.90;;;;;;5081199;28;20429;-82
2022/10/14 03:24:16;;;;;;;;;;;14.90;99.90;;;;;;5080752;28;19914;-82
2022/10/14 03:26:41;;;;;;;;;;;14.90;99.90;;;;;;5079752;28;19908;-82
2022/10/14 03:29:06;;;;;;;;;;;14.90;99.90;;;;;;5078194;28;19914;-81
2022/10/14 03:31:32;;;;;;;;;;;14.90;99.90;;;;;;5078074;28;19919;-81
2022/10/14 03:33:57;;;;;;;;;;;14.90;99.90;;;;;;5077673;28;19908;-81
2022/10/14 03:36:23;;;;;;;;;;;14.90;99.90;;;;;;5095328;28;19916;-81
2022/10/14 03:38:48;;;;;;;;;;;14.90;99.90;;;;;;5096162;28;19903;-81
2022/10/14 03:41:14;;;;;;;;;;;14.90;99.90;;;;;;5077732;28;19916;-82
2022/10/14 03:43:39;;;;;;;;;;;14.90;99.90;;;;;;5077591;28;19948;-82
2022/10/14 03:46:05;;;;;;;;;;;14.90;99.90;;;;;;5095877;28;19999;-81
2022/10/14 03:48:30;;;;;;;;;;;14.90;99.90;;;;;;5077818;28;19915;-81
2022/10/14 03:50:56;;;;;;;;;;;14.80;99.90;;;;;;5095978;28;20377;-81
2022/10/14 03:53:21;;;;;;;;;;;14.90;99.90;;;;;;5095638;28;19908;-82
2022/10/14 03:55:47;;;;;;;;;;;14.90;99.90;;;;;;5095736;28;19908;-81
2022/10/14 03:58:12;;;;;;;;;;;14.90;99.90;;;;;;5077606;28;19912;-82
2022/10/14 04:00:38;;;;;;;;;;;14.90;99.90;;;;;;5077255;28;19916;-81
2022/10/14 04:03:03;;;;;;;;;;;14.90;99.90;;;;;;5077260;28;19919;-81
2022/10/14 04:05:32;;;;;;;;;;;14.90;99.90;;;;;;5077365;28;20285;-81
2022/10/14 04:08:01;;;;;;;;;;;14.90;99.90;;;;;;5095477;28;19908;-82
2022/10/14 04:10:27;;;;;;;;;;;14.90;99.90;;;;;;5095685;28;19908;-82
2022/10/14 04:12:52;;;;;;;;;;;14.90;99.90;;;;;;5077251;28;20171;-81
2022/10/14 04:15:18;;;;;;;;;;;14.90;99.90;;;;;;5095529;28;20354;-82
2022/10/14 04:17:44;;;;;;;;;;;14.90;99.90;;;;;;5095498;28;19908;-82
2022/10/14 04:20:10;;;;;;;;;;;14.90;99.90;;;;;;5095371;28;19912;-82
2022/10/14 04:22:35;;;;;;;;;;;14.90;99.90;;;;;;5077348;28;19908;-81
2022/10/14 04:25:01;;;;;;;;;;;14.90;99.90;;;;;;5077210;28;19916;-81
2022/10/14 04:27:26;;;;;;;;;;;14.90;99.90;;;;;;5089143;28;19962;-81
2022/10/14 04:29:51;;;;;;;;;;;15.00;99.90;;;;;;5076992;28;19908;-81
2022/10/14 04:32:17;;;;;;;;;;;15.00;99.90;;;;;;5076876;28;20414;-81
2022/10/14 04:34:43;;;;;;;;;;;15.00;99.90;;;;;;5094824;28;19927;-81
2022/10/14 04:37:08;;;;;;;;;;;14.90;99.90;;;;;;5094668;28;19920;-81
2022/10/14 04:39:34;;;;;;;;;;;15.00;99.90;;;;;;5076327;28;20270;-81
2022/10/14 04:41:59;;;;;;;;;;;15.00;99.90;;;;;;5094860;28;19915;-81
2022/10/14 04:44:25;;;;;;;;;;;15.00;99.90;;;;;;5094653;28;20327;-82
2022/10/14 04:46:50;;;;;;;;;;;15.00;99.90;;;;;;5094646;28;20357;-81
2022/10/14 04:49:16;;;;;;;;;;;14.90;99.90;;;;;;5076690;28;19908;-81
2022/10/14 04:51:42;;;;;;;;;;;14.90;99.90;;;;;;5076505;28;19915;-81
2022/10/14 04:54:07;;;;;;;;;;;14.90;99.90;;;;;;5076202;28;19908;-81
2022/10/14 04:56:33;;;;;;;;;;;15.00;99.90;;;;;;5076438;28;19915;-81
2022/10/14 04:58:58;;;;;;;;;;;14.90;99.90;;;;;;5094660;28;19916;-81
2022/10/14 05:01:24;;;;;;;;;;;14.90;99.90;;;;;;5094466;28;19912;-81
2022/10/14 05:03:50;;;;;;;;;;;14.90;99.90;;;;;;5076073;28;20274;-81
2022/10/14 05:06:16;;;;;;;;;;;14.90;99.90;;;;;;5094262;28;19999;-81
2022/10/14 05:08:41;;;;;;;;;;;14.90;99.90;;;;;;5076208;28;19992;-82
2022/10/14 05:11:07;;;;;;;;;;;14.90;99.90;;;;;;5094009;28;20327;-81
2022/10/14 05:13:32;;;;;;;;;;;14.90;99.90;;;;;;5093700;28;20274;-81
2022/10/14 05:15:58;;;;;;;;;;;14.90;99.90;;;;;;5094122;28;19936;-82
2022/10/14 05:18:23;;;;;;;;;;;14.90;99.90;;;;;;5094278;28;20366;-81
2022/10/14 05:20:49;;;;;;;;;;;14.90;99.90;;;;;;5094079;28;19915;-82
2022/10/14 05:23:14;;;;;;;;;;;14.80;99.90;;;;;;5075778;28;20358;-79
2022/10/14 05:25:40;;;;;;;;;;;14.80;99.90;;;;;;5094247;28;19908;-81
2022/10/14 05:28:06;;;;;;;;;;;14.80;99.90;;;;;;5076047;28;20383;-81
2022/10/14 05:30:31;;;;;;;;;;;14.70;99.90;;;;;;5094055;28;19912;-80
2022/10/14 05:32:57;;;;;;;;;;;14.70;99.90;;;;;;5093652;28;19957;-80
2022/10/14 05:35:22;;;;;;;;;;;14.70;99.90;;;;;;5093833;28;20365;-82
2022/10/14 05:37:53;;;;;;;;;;;14.80;99.90;;;;;;5075627;28;19923;-81
2022/10/14 05:40:18;;;;;;;;;;;14.80;99.90;;;;;;5093480;28;19916;-81
2022/10/14 05:42:44;;;;;;;;;;;14.80;99.90;;;;;;5093729;28;19908;-81
2022/10/14 05:45:10;;;;;;;;;;;14.80;99.90;;;;;;5093322;28;19908;-81
2022/10/14 05:47:35;;;;;;;;;;;14.80;99.90;;;;;;5094002;28;20410;-81
2022/10/14 05:50:02;;;;;;;;;;;14.90;99.90;;;;;;5075490;28;20003;-81
2022/10/14 05:52:28;;;;;;;;;;;14.90;99.90;;;;;;5093547;28;20357;-81
2022/10/14 05:54:54;;;;;;;;;;;14.90;99.90;;;;;;5093318;28;19908;-81
2022/10/14 05:57:19;;;;;;;;;;;15.00;99.90;;;;;;5075401;28;19908;-81
2022/10/14 05:59:45;;;;;;;;;;;15.00;99.90;;;;;;5093537;28;19920;-81
2022/10/14 06:02:10;;;;;;;;;;;15.00;99.90;;;;;;5075241;28;19958;-81
2022/10/14 06:04:39;;;;;;;;;;;15.00;99.90;;;;;;5093190;28;19915;-81
2022/10/14 06:07:05;;;;;;;;;;;15.00;99.90;;;;;;5093771;28;20400;-81
2022/10/14 06:09:31;;;;;;;;;;;15.00;99.90;;;;;;5075103;28;19909;-81
2022/10/14 06:11:56;;;;;;;;;;;15.00;99.90;;;;;;5093166;28;19995;-81
2022/10/14 06:14:22;;;;;;;;;;;15.10;99.90;;;;;;5074770;28;19957;-81
2022/10/14 06:16:50;;;;;;;;;;;15.10;99.90;;;;;;5074966;28;19948;-81
2022/10/14 06:19:16;;;;;;;;;;;15.10;99.90;;;;;;5074800;28;19908;-81
2022/10/14 06:21:43;;;;;;;;;;;15.10;99.90;;;;;;5092721;28;20380;-81
2022/10/14 06:24:09;;;;;;;;;;;15.00;99.90;;;;;;5093236;28;19909;-81
2022/10/14 06:26:34;;;;;;;;;;;15.00;99.90;;;;;;5093165;28;19908;-81
2022/10/14 06:29:00;;;;;;;;;;;15.10;99.90;;;;;;5074893;28;19908;-81
2022/10/14 06:31:25;;;;;;;;;;;15.10;99.90;;;;;;5093055;28;19915;-81
2022/10/14 06:33:51;;;;;;;;;;;15.00;99.90;;;;;;5074615;28;19909;-81
2022/10/14 06:36:22;;;;;;;;;;;15.00;99.90;;;;;;5092728;28;19952;-81
2022/10/14 06:38:48;;;;;;;;;;;15.00;99.90;;;;;;5074930;28;20292;-81
2022/10/14 06:41:13;;;;;;;;;;;15.00;99.90;;;;;;5074658;28;19918;-81
2022/10/14 06:43:39;;;;;;;;;;;15.00;99.90;;;;;;5092724;28;20265;-81
2022/10/14 06:46:04;;;;;;;;;;;14.90;99.90;;;;;;5092954;28;20343;-81
2022/10/14 06:48:30;;;;;;;;;;;14.80;99.90;;;;;;5092787;28;20010;-81
2022/10/14 06:50:59;;;;;;;;;;;14.90;99.90;;;;;;5074721;28;19908;-81
2022/10/14 06:53:25;;;;;;;;;;;14.90;99.90;;;;;;5097282;28;20339;-81
2022/10/14 06:55:58;;;;;;;;;;;14.80;99.90;;;;;;5097101;28;20366;-81
2022/10/14 06:58:23;;;;;;;;;;;14.90;99.90;;;;;;5096849;28;19912;-81
2022/10/14 07:00:49;;;;;;;;;;;14.90;99.90;;;;;;5078195;28;19912;-81
2022/10/14 07:03:14;;;;;;;;;;;14.90;99.90;;;;;;5078423;28;19908;-80
2022/10/14 07:05:40;;;;;;;;;;;14.90;99.90;;;;;;5097010;28;19908;-81
2022/10/14 07:08:05;;;;;;;;;;;15.00;99.90;;;;;;5096933;28;20263;-81
2022/10/14 07:10:31;;;;;;;;;;;15.00;99.90;;;;;;5078527;28;19908;-81
2022/10/14 07:12:56;;;;;;;;;;;14.90;99.90;;;;;;5096376;28;19912;-82
2022/10/14 07:15:22;;;;;;;;;;;14.90;99.90;;;;;;5096570;28;19974;-81
2022/10/14 07:17:47;;;;;;;;;;;14.90;99.90;;;;;;5078229;28;20011;-81
2022/10/14 07:20:13;;;;;;;;;;;14.90;99.90;;;;;;5096648;28;19916;-81
2022/10/14 07:22:38;;;;;;;;;;;15.00;99.90;;;;;;5096492;28;19915;-81
2022/10/14 07:25:04;;;;;;;;;;;15.00;99.90;;;;;;5090159;28;19916;-84
2022/10/14 07:27:30;;;;;;;;;;;15.00;99.90;;;;;;5074320;28;19913;-86
2022/10/14 07:29:55;;;;;;;;;;;15.00;99.90;;;;;;5096732;28;19953;-85
2022/10/14 07:32:21;;;;;;;;;;;15.00;99.90;;;;;;5079104;28;19915;-85
2022/10/14 07:34:46;;;;;;;;;;;15.00;99.90;;;;;;5097802;28;20433;-85
2022/10/14 07:37:12;;;;;;;;;;;15.10;99.90;;;;;;5077516;28;19962;-85
2022/10/14 07:39:38;;;;;;;;;;;15.10;99.90;;;;;;5079122;28;19908;-85
2022/10/14 07:42:03;;;;;;;;;;;15.20;99.90;;;;;;5097285;28;19908;-85
2022/10/14 07:44:29;;;;;;;;;;;15.30;99.90;;;;;;5078693;28;19915;-83
2022/10/14 07:46:54;;;;;;;;;;;15.30;99.90;;;;;;5079513;28;20359;-87
2022/10/14 07:49:20;;;;;;;;;;;15.40;99.90;;;;;;5079209;28;19956;-86
2022/10/14 07:51:46;;;;;;;;;;;15.40;99.90;;;;;;5078811;28;20569;-83
2022/10/14 07:54:16;;;;;;;;;;;15.40;99.90;;;;;;5078332;28;20381;-85
2022/10/14 07:56:42;;;;;;;;;;;15.40;99.90;;;;;;5077912;28;19908;-83
2022/10/14 07:59:08;;;;;;;;;;;15.40;99.90;;;;;;5079081;28;19915;-86
2022/10/14 08:01:33;;;;;;;;;;;15.40;99.90;;;;;;5077695;28;19912;-86
2022/10/14 08:03:59;;;;;;;;;;;15.50;99.90;;;;;;5077197;28;19908;-86
2022/10/14 08:06:25;;;;;;;;;;;15.60;99.90;;;;;;5078629;28;19908;-87
2022/10/14 08:08:50;;;;;;;;;;;15.60;99.90;;;;;;5077965;28;19916;-86
2022/10/14 08:11:17;;;;;;;;;;;15.70;99.90;;;;;;5077977;28;19947;-86
2022/10/14 08:13:43;;;;;;;;;;;15.80;99.90;;;;;;5078721;28;20307;-85
2022/10/14 08:16:13;;;;;;;;;;;15.80;99.90;;;;;;5095676;28;19991;-86
2022/10/14 08:18:38;;;;;;;;;;;15.90;99.90;;;;;;5078405;28;19909;-85
2022/10/14 08:21:04;;;;;;;;;;;15.90;99.90;;;;;;5077118;28;20393;-87
2022/10/14 08:23:31;;;;;;;;;;;16.00;99.90;;;;;;5077615;28;19957;-85
2022/10/14 08:25:57;;;;;;;;;;;16.00;99.90;;;;;;5095419;28;19908;-86
2022/10/14 08:28:22;;;;;;;;;;;16.10;99.90;;;;;;5078082;28;20435;-87
2022/10/14 08:30:48;;;;;;;;;;;16.10;99.90;;;;;;5078103;28;19908;-85
2022/10/14 08:33:14;;;;;;;;;;;16.10;99.90;;;;;;5077892;28;19908;-85
2022/10/14 08:35:39;;;;;;;;;;;16.20;99.90;;;;;;5095540;28;19912;-85
2022/10/14 08:38:04;;;;;;;;;;;16.30;99.90;;;;;;5077688;28;19927;-86
2022/10/14 08:40:35;;;;;;;;;;;16.30;99.90;;;;;;5077170;28;19962;-86
2022/10/14 08:43:12;;;;;;;;;;;16.40;99.90;;;;;;5096281;28;19908;-85
2022/10/14 08:45:41;;;;;;;;;;;16.40;99.90;;;;;;5095585;28;20012;-87
2022/10/14 08:48:12;;;;;;;;;;;16.50;99.90;;;;;;5076754;28;20255;-85
2022/10/14 08:50:48;;;;;;;;;;;16.50;99.90;;;;;;5076567;28;20381;-84
2022/10/14 08:53:17;;;;;;;;;;;16.60;99.90;;;;;;5077548;28;19998;-85
2022/10/14 08:55:44;;;;;;;;;;;16.70;99.90;;;;;;5094812;28;19919;-83
2022/10/14 08:58:33;;;;;;;;;;;16.80;99.90;;;;;;5067251;28;19919;-87
2022/10/14 09:01:01;;;;;;;;;;;16.80;99.90;;;;;;5063759;28;19912;-83
2022/10/14 09:03:32;;;;;;;;;;;16.80;99.90;;;;;;5076576;28;19939;-86
2022/10/14 09:06:06;;;;;;;;;;;16.90;99.90;;;;;;5074886;28;19908;-86
2022/10/14 09:08:37;;;;;;;;;;;17.00;99.90;;;;;;5077325;28;19915;-85
2022/10/14 09:11:03;;;;;;;;;;;17.00;99.90;;;;;;5076967;28;20296;-84
2022/10/14 09:13:38;;;;;;;;;;;17.10;99.90;;;;;;5075973;28;20418;-85
2022/10/14 09:16:20;;;;;;;;;;;17.10;99.90;;;;;;5057271;28;19909;-86
2022/10/14 09:18:48;;;;;;;;;;;17.00;99.90;;;;;;5059998;28;20312;-81
2022/10/14 09:21:32;;;;;;;;;;;17.10;99.90;;;;;;5059725;28;20358;-84
2022/10/14 09:24:01;;;;;;;;;;;17.20;99.90;;;;;;5058831;28;19939;-84
2022/10/14 09:26:34;;;;;;;;;;;17.20;99.90;;;;;;5076207;28;19948;-83
2022/10/14 09:29:00;;;;;;;;;;;17.20;99.90;;;;;;5058263;28;20007;-84
2022/10/14 09:31:26;;;;;;;;;;;17.30;99.90;;;;;;5062821;28;19966;-85
2022/10/14 09:33:54;;;;;;;;;;;17.40;99.90;;;;;;5070829;28;19909;-85
2022/10/14 09:36:20;;;;;;;;;;;17.40;99.90;;;;;;5056898;28;19947;-84
2022/10/14 09:38:53;;;;;;;;;;;17.40;99.90;;;;;;5067542;28;19941;-84
2022/10/14 09:41:21;;;;;;;;;;;17.50;99.90;;;;;;5073220;28;20385;-84
2022/10/14 09:44:05;;;;;;;;;;;17.50;99.90;;;;;;5083547;28;19908;-83
2022/10/14 09:46:31;;;;;;;;;;;17.60;99.90;;;;;;5086357;28;20003;-85
2022/10/14 09:48:56;;;;;;;;;;;17.70;99.90;;;;;;5078029;28;20000;-84
2022/10/14 09:51:27;;;;;;;;;;;17.80;99.90;;;;;;5076565;28;20457;-84
2022/10/14 09:53:56;;;;;;;;;;;17.90;99.90;;;;;;5094998;28;19918;-84
2022/10/14 09:56:35;;;;;;;;;;;18.00;99.90;;;;;;5093147;28;19908;-84
2022/10/14 09:59:02;;;;;;;;;;;18.00;99.90;;;;;;5075074;28;19908;-84
2022/10/14 10:01:36;;;;;;;;;;;18.00;99.90;;;;;;5074824;28;19912;-81
2022/10/14 10:04:23;;;;;;;;;;;18.00;99.90;;;;;;5074076;28;21442;-82
2022/10/14 10:06:53;;;;;;;;;;;17.90;99.90;;;;;;5075219;28;19908;-83
2022/10/14 10:09:19;;;;;;;;;;;17.90;99.90;;;;;;5093829;28;19919;-83
2022/10/14 10:11:44;;;;;;;;;;;17.90;99.90;;;;;;5075976;28;20365;-84
2022/10/14 10:14:12;;;;;;;;;;;17.90;99.90;;;;;;5076954;28;19909;-85
2022/10/14 10:16:38;;;;;;;;;;;18.00;99.90;;;;;;5075986;28;19959;-83
2022/10/14 10:19:33;;;;;;;;;;;18.00;99.90;;;;;;5078281;28;19908;-84
2022/10/14 10:22:15;;;;;;;;;;;18.00;99.90;;;;;;5048257;28;19966;-84
2022/10/14 10:24:41;;;;;;;;;;;18.00;99.90;;;;;;5079579;28;19908;-83
2022/10/14 10:27:26;;;;;;;;;;;18.00;99.90;;;;;;5075591;28;20388;-82
2022/10/14 10:29:54;;;;;;;;;;;18.00;99.90;;;;;;5093493;28;19908;-82
2022/10/14 10:32:39;;;;;;;;;;;17.90;99.90;;;;;;5076052;28;19919;-83
2022/10/14 10:35:21;;;;;;;;;;;17.80;99.90;;;;;;5073998;28;20339;-82
2022/10/14 10:37:47;;;;;;;;;;;17.70;99.90;;;;;;5091785;28;19967;-83
2022/10/14 10:40:25;;;;;;;;;;;17.40;99.90;;;;;;5070031;28;19916;-83
2022/10/14 10:42:57;;;;;;;;;;;17.30;99.90;;;;;;5060131;28;19912;-83
2022/10/14 10:45:22;;;;;;;;;;;17.20;99.90;;;;;;5085023;28;19960;-83
2022/10/14 10:47:57;;;;;;;;;;;17.10;99.90;;;;;;5072964;28;19916;-85
2022/10/14 10:50:37;;;;;;;;;;;17.00;99.90;;;;;;5064307;28;19970;-85
2022/10/14 10:53:09;;;;;;;;;;;17.00;99.90;;;;;;5061890;28;19967;-84
2022/10/14 10:55:53;;;;;;;;;;;17.00;99.90;;;;;;5069193;28;19912;-84
2022/10/14 10:58:18;;;;;;;;;;;17.00;99.90;;;;;;5086598;28;20014;-84
2022/10/14 11:00:46;;;;;;;;;;;17.10;99.90;;;;;;5070087;28;20363;-83
2022/10/14 11:03:24;;;;;;;;;;;17.20;99.90;;;;;;5072774;28;19916;-82
2022/10/14 11:05:57;;;;;;;;;;;17.30;99.90;;;;;;5090731;28;19931;-82
2022/10/14 11:14:12;;;;;;;;;;;17.40;99.90;;;;;;5093252;28;19986;-83
2022/10/14 11:16:41;;;;;;;;;;;17.40;99.90;;;;;;5074606;28;20002;-82
2022/10/14 11:19:13;;;;;;;;;;;17.40;99.90;;;;;;5074497;28;19908;-85
2022/10/14 11:21:58;;;;;;;;;;;17.40;99.90;;;;;;5071221;28;20369;-84
2022/10/14 11:24:39;;;;;;;;;;;17.40;99.90;;;;;;5073769;28;19944;-82
2022/10/14 11:27:07;;;;;;;;;;;17.40;99.90;;;;;;5076865;28;19908;-84
2022/10/14 11:29:41;;;;;;;;;;;17.40;99.90;;;;;;5078218;28;19912;-85
2022/10/14 11:32:07;;;;;;;;;;;17.40;99.90;;;;;;5078112;28;19908;-85
2022/10/14 11:34:40;;;;;;;;;;;17.50;99.90;;;;;;5072599;28;19919;-84
2022/10/14 11:37:11;;;;;;;;;;;17.50;99.90;;;;;;5074004;28;19960;-82
2022/10/14 11:39:39;;;;;;;;;;;17.60;99.90;;;;;;5076369;28;19958;-82
2022/10/14 11:42:19;;;;;;;;;;;17.70;99.90;;;;;;5090500;28;19922;-82
2022/10/14 11:44:46;;;;;;;;;;;17.60;99.90;;;;;;5079619;28;20370;-83
2022/10/14 11:47:17;;;;;;;;;;;17.50;99.90;;;;;;5079575;28;19915;-82
2022/10/14 11:50:05;;;;;;;;;;;17.60;99.90;;;;;;5098349;28;20003;-83
2022/10/14 11:52:51;;;;;;;;;;;17.60;99.90;;;;;;5097822;28;19908;-81
2022/10/14 11:55:22;;;;;;;;;;;17.60;99.90;;;;;;5078801;28;20490;-81
2022/10/14 11:57:48;;;;;;;;;;;17.60;99.90;;;;;;5079188;28;19915;-81
2022/10/14 12:00:21;;;;;;;;;;;17.60;99.90;;;;;;5097409;28;19999;-81
2022/10/14 12:02:46;;;;;;;;;;;17.50;99.90;;;;;;5079154;28;19915;-83
2022/10/14 12:05:30;;;;;;;;;;;17.50;99.90;;;;;;5096622;28;19912;-80
2022/10/14 12:08:04;;;;;;;;;;;17.50;99.90;;;;;;5078960;28;20413;-81
2022/10/14 12:10:34;;;;;;;;;;;17.50;99.90;;;;;;5096863;28;19915;-82
2022/10/14 12:13:00;;;;;;;;;;;17.50;99.90;;;;;;5096510;28;19908;-81
2022/10/14 12:15:27;;;;;;;;;;;17.50;99.90;;;;;;5079142;28;19915;-87
2022/10/14 12:25:35;;;;;;;;;;;17.80;99.90;;;;;;5024032;28;19932;-85
2022/10/14 12:28:01;;;;;;;;;;;17.80;99.90;;;;;;5017137;28;19991;-84
2022/10/14 12:30:29;;;;;;;;;;;17.70;99.90;;;;;;5019747;28;19909;-84
2022/10/14 12:33:03;;;;;;;;;;;17.60;99.90;;;;;;5018271;28;20364;-81
2022/10/14 12:35:45;;;;;;;;;;;17.50;99.90;;;;;;5016992;28;19917;-81
2022/10/14 12:38:11;;;;;;;;;;;17.40;99.90;;;;;;5032336;28;20347;-86
2022/10/14 12:40:38;;;;;;;;;;;17.20;99.90;;;;;;5014050;28;19959;-86
2022/10/14 12:43:12;;;;;;;;;;;17.10;99.90;;;;;;5015810;28;19920;-84
2022/10/14 12:45:45;;;;;;;;;;;17.10;99.90;;;;;;5016423;28;19909;-85
2022/10/14 12:48:20;;;;;;;;;;;17.10;99.90;;;;;;5016740;28;19913;-85
2022/10/14 12:50:46;;;;;;;;;;;17.00;99.90;;;;;;5031351;28;19949;-86
2022/10/14 12:53:23;;;;;;;;;;;17.10;99.90;;;;;;5015134;28;19916;-86
2022/10/14 12:55:52;;;;;;;;;;;17.10;99.90;;;;;;5016133;28;19910;-86
2022/10/14 12:58:23;;;;;;;;;;;17.10;99.90;;;;;;5014437;28;19921;-85
2022/10/14 13:00:53;;;;;;;;;;;17.10;99.90;;;;;;5016155;28;19913;-85
2022/10/14 13:03:22;;;;;;;;;;;17.20;99.90;;;;;;5016356;28;19916;-85
2022/10/14 13:05:48;;;;;;;;;;;17.30;99.90;;;;;;5017707;28;19909;-86
2022/10/14 13:08:22;;;;;;;;;;;17.40;99.90;;;;;;5017575;28;19920;-86
2022/10/14 13:11:07;;;;;;;;;;;17.50;99.90;;;;;;5034819;28;19909;-85
2022/10/14 13:13:51;;;;;;;;;;;17.70;99.90;;;;;;5020340;28;20327;-85
2022/10/14 13:16:19;;;;;;;;;;;17.90;99.90;;;;;;5016173;28;19972;-87
2022/10/14 13:18:44;;;;;;;;;;;18.00;99.90;;;;;;5016220;28;19910;-84
2022/10/14 13:21:39;;;;;;;;;;;18.10;99.90;;;;;;5032593;28;19913;-86
2022/10/14 13:24:11;;;;;;;;;;;18.10;99.90;;;;;;4997187;28;20009;-86
2022/10/14 13:26:40;;;;;;;;;;;18.20;99.90;;;;;;5033112;28;19910;-85
2022/10/14 13:29:18;;;;;;;;;;;18.10;99.90;;;;;;5014158;28;19913;-86
2022/10/14 13:32:07;;;;;;;;;;;18.10;99.90;;;;;;5029648;28;20007;-85
2022/10/14 13:34:42;;;;;;;;;;;18.10;99.90;;;;;;5013831;28;19909;-85
2022/10/14 13:37:30;;;;;;;;;;;17.90;99.90;;;;;;5030426;28;20264;-86
2022/10/14 13:39:57;;;;;;;;;;;17.90;99.90;;;;;;5014539;28;19924;-86
2022/10/14 13:42:25;;;;;;;;;;;17.80;99.90;;;;;;5014464;28;19917;-86
2022/10/14 13:44:52;;;;;;;;;;;17.80;99.90;;;;;;5012610;28;20264;-86
2022/10/14 13:47:19;;;;;;;;;;;17.80;99.90;;;;;;5014576;28;19920;-86
2022/10/14 13:49:45;;;;;;;;;;;17.80;99.90;;;;;;5012942;28;20378;-85
2022/10/14 13:52:24;;;;;;;;;;;17.60;99.90;;;;;;5012884;28;19940;-85
2022/10/14 13:55:03;;;;;;;;;;;17.70;99.90;;;;;;5012554;28;19909;-87
2022/10/14 13:57:34;;;;;;;;;;;17.60;99.90;;;;;;5025273;28;20510;-86
2022/10/14 14:00:20;;;;;;;;;;;17.60;99.90;;;;;;5012751;28;19940;-86
2022/10/14 14:02:52;;;;;;;;;;;17.70;99.90;;;;;;5014627;28;19913;-85
2022/10/14 14:05:24;;;;;;;;;;;17.70;99.90;;;;;;5012845;28;19914;-85
2022/10/14 14:07:50;;;;;;;;;;;17.70;99.90;;;;;;5014697;28;20256;-86
2022/10/14 14:10:21;;;;;;;;;;;17.80;99.90;;;;;;5013177;28;20005;-86
2022/10/14 14:12:50;;;;;;;;;;;17.80;99.90;;;;;;5012187;28;19910;-87
2022/10/14 14:15:23;;;;;;;;;;;17.80;99.90;;;;;;5012820;28;19913;-88
2022/10/14 14:17:48;;;;;;;;;;;17.90;99.90;;;;;;5015814;28;19963;-83
2022/10/14 14:20:17;;;;;;;;;;;17.90;99.90;;;;;;5017747;28;19918;-87
2022/10/14 14:22:43;;;;;;;;;;;17.90;99.90;;;;;;5011999;28;19960;-87
2022/10/14 14:25:08;;;;;;;;;;;17.90;99.90;;;;;;5011829;28;19917;-86
2022/10/14 14:27:34;;;;;;;;;;;17.80;99.90;;;;;;5028800;28;20403;-86
2022/10/14 14:30:01;;;;;;;;;;;17.90;99.90;;;;;;5012316;28;19963;-86
2022/10/14 14:32:30;;;;;;;;;;;18.00;99.90;;;;;;4995818;28;20325;-87
2022/10/14 14:34:56;;;;;;;;;;;18.00;99.90;;;;;;5010694;28;19946;-86
2022/10/14 14:37:27;;;;;;;;;;;18.10;99.90;;;;;;5011599;28;19959;-87
2022/10/14 14:39:56;;;;;;;;;;;18.10;99.90;;;;;;5012163;28;19964;-87